createdAt,value
2023-07-26T00:02:12.134Z,91.46
2023-07-26T00:05:14.936Z,90.61
2023-07-26T00:08:17.827Z,91.03
2023-07-26T00:11:20.559Z,91.20
2023-07-26T00:14:22.963Z,91.01
2023-07-26T00:17:25.722Z,91.60
2023-07-26T00:20:28.186Z,91.72
2023-07-26T00:23:31.741Z,91.78
2023-07-26T00:26:34.623Z,93.13
2023-07-26T00:29:37.611Z,92.16
2023-07-26T00:32:40.137Z,92.90
2023-07-26T00:35:44.226Z,93.25
2023-07-26T00:38:47.743Z,93.47
2023-07-26T00:41:50.494Z,93.79
2023-07-26T00:44:52.948Z,93.03
2023-07-26T00:47:57.270Z,94.01
2023-07-26T00:51:01.143Z,93.51
2023-07-26T00:54:05.199Z,93.31
2023-07-26T00:57:07.735Z,93.47
2023-07-26T01:00:11.720Z,93.34
2023-07-26T01:03:15.345Z,93.74
2023-07-26T01:07:03.204Z,93.61
2023-07-26T01:10:08.567Z,93.83
2023-07-26T01:14:04.225Z,93.46
2023-07-26T01:17:08.407Z,93.84
2023-07-26T01:20:11.618Z,94.25
2023-07-26T01:23:14.156Z,93.51
2023-07-26T01:26:16.917Z,93.45
2023-07-26T01:29:19.327Z,92.73
2023-07-26T01:32:25.271Z,92.94
2023-07-26T01:35:29.503Z,92.90
2023-07-26T01:38:33.007Z,93.88
2023-07-26T01:41:36.615Z,93.56
2023-07-26T01:44:40.144Z,93.00
2023-07-26T01:47:42.838Z,92.55
2023-07-26T01:50:45.591Z,92.21
2023-07-26T01:53:48.080Z,92.17
2023-07-26T01:56:52.406Z,92.82
2023-07-26T01:59:55.419Z,91.87
2023-07-26T02:02:58.108Z,91.83
2023-07-26T02:06:01.205Z,92.20
2023-07-26T02:09:03.776Z,91.55
2023-07-26T02:12:06.869Z,91.94
2023-07-26T02:15:09.721Z,91.92
2023-07-26T02:18:12.468Z,91.96
2023-07-26T02:21:14.925Z,92.02
2023-07-26T02:24:19.425Z,91.54
2023-07-26T02:27:21.961Z,91.27
2023-07-26T02:30:24.847Z,91.40
2023-07-26T02:33:27.335Z,91.95
2023-07-26T02:36:30.072Z,91.66
2023-07-26T02:39:32.530Z,90.52
2023-07-26T02:42:35.322Z,90.53
2023-07-26T02:45:37.811Z,90.20
2023-07-26T02:48:40.726Z,89.86
2023-07-26T02:51:43.182Z,89.91
2023-07-26T02:54:45.907Z,89.07
2023-07-26T02:57:48.362Z,88.35
2023-07-26T03:00:54.712Z,88.00
2023-07-26T03:03:58.128Z,88.30
2023-07-26T03:07:00.850Z,88.31
2023-07-26T03:10:03.849Z,88.04
2023-07-26T03:13:07.002Z,87.68
2023-07-26T03:16:09.589Z,87.07
2023-07-26T03:19:12.296Z,87.49
2023-07-26T03:22:14.689Z,87.49
2023-07-26T03:25:17.451Z,87.60
2023-07-26T03:28:19.936Z,87.42
2023-07-26T03:31:22.650Z,87.77
2023-07-26T03:34:26.049Z,87.47
2023-07-26T03:37:28.933Z,86.94
2023-07-26T03:40:31.470Z,86.99
2023-07-26T03:43:34.194Z,87.10
2023-07-26T03:46:36.695Z,86.77
2023-07-26T03:49:40.502Z,86.55
2023-07-26T03:52:42.967Z,86.72
2023-07-26T03:55:45.677Z,86.22
2023-07-26T03:58:49.105Z,86.28
2023-07-26T04:01:51.924Z,85.61
2023-07-26T04:04:54.737Z,85.34
2023-07-26T04:07:57.630Z,85.48
2023-07-26T04:11:04.095Z,84.65
2023-07-26T04:14:06.584Z,83.33
2023-07-26T04:17:09.409Z,83.10
2023-07-26T04:20:12.265Z,82.12
2023-07-26T04:23:14.962Z,82.31
2023-07-26T04:26:17.361Z,81.73
2023-07-26T04:29:20.578Z,80.41
2023-07-26T04:32:23.065Z,80.04
2023-07-26T04:35:25.774Z,80.04
2023-07-26T04:38:28.474Z,79.95
2023-07-26T04:41:31.187Z,79.22
2023-07-26T04:44:33.606Z,78.99
2023-07-26T04:47:36.472Z,78.70
2023-07-26T04:50:39.051Z,78.50
2023-07-26T04:53:41.789Z,78.26
2023-07-26T04:56:44.251Z,77.47
2023-07-26T04:59:46.936Z,76.92
2023-07-26T05:02:49.603Z,77.35
2023-07-26T05:05:52.957Z,76.13
2023-07-26T05:08:55.374Z,76.51
2023-07-26T05:11:58.134Z,76.24
2023-07-26T05:15:00.629Z,75.00
2023-07-26T05:18:03.637Z,75.01
2023-07-26T05:21:06.089Z,75.03
2023-07-26T05:24:08.796Z,73.77
2023-07-26T05:27:11.232Z,72.31
2023-07-26T05:30:16.316Z,72.16
2023-07-26T05:33:18.747Z,72.23
2023-07-26T05:36:21.492Z,72.12
2023-07-26T05:39:23.938Z,72.02
2023-07-26T05:42:26.633Z,72.01
2023-07-26T05:45:29.093Z,72.90
2023-07-26T05:48:31.939Z,72.93
2023-07-26T05:51:34.647Z,72.91
2023-07-26T05:54:37.794Z,73.60
2023-07-26T05:57:40.796Z,73.70
2023-07-26T06:00:43.497Z,73.99
2023-07-26T06:03:47.159Z,74.59
2023-07-26T06:06:49.921Z,74.91
2023-07-26T06:09:52.760Z,75.19
2023-07-26T06:12:55.196Z,75.92
2023-07-26T06:15:57.966Z,75.88
2023-07-26T06:19:00.567Z,75.90
2023-07-26T06:22:03.613Z,76.03
2023-07-26T06:25:06.320Z,76.50
2023-07-26T06:28:09.172Z,77.77
2023-07-26T06:31:12.077Z,78.54
2023-07-26T06:34:15.151Z,78.67
2023-07-26T06:37:17.639Z,78.63
2023-07-26T06:40:20.356Z,77.74
2023-07-26T06:43:22.813Z,77.66
2023-07-26T06:46:25.602Z,76.89
2023-07-26T06:49:28.121Z,78.31
2023-07-26T06:52:31.867Z,77.92
2023-07-26T06:55:35.130Z,77.76
2023-07-26T06:58:37.869Z,77.77
2023-07-26T07:01:40.642Z,77.93
2023-07-26T07:04:43.458Z,77.80
2023-07-26T07:07:45.931Z,77.65
2023-07-26T07:10:48.741Z,77.20
2023-07-26T07:13:51.305Z,77.49
2023-07-26T07:16:54.229Z,77.28
2023-07-26T07:19:56.725Z,77.17
2023-07-26T07:22:59.458Z,77.16
2023-07-26T07:26:01.904Z,77.35
2023-07-26T07:29:05.066Z,77.81
2023-07-26T07:32:20.981Z,77.85
2023-07-26T07:35:25.115Z,78.17
2023-07-26T07:38:27.604Z,78.02
2023-07-26T07:41:30.561Z,79.17
2023-07-26T07:44:33.267Z,79.93
2023-07-26T07:47:36.016Z,80.61
2023-07-26T07:50:38.470Z,80.81
2023-07-26T07:53:41.143Z,83.24
2023-07-26T07:56:44.268Z,83.39
2023-07-26T07:59:47.008Z,83.66
2023-07-26T08:02:49.480Z,83.49
2023-07-26T08:05:53.095Z,83.29
2023-07-26T08:08:55.506Z,83.54
2023-07-26T08:11:59.164Z,84.58
2023-07-26T08:15:01.628Z,85.42
2023-07-26T08:18:06.051Z,84.72
2023-07-26T08:21:11.755Z,85.26
2023-07-26T08:24:14.477Z,86.09
2023-07-26T08:27:17.160Z,85.68
2023-07-26T08:30:19.949Z,86.49
2023-07-26T08:33:22.368Z,85.57
2023-07-26T08:36:25.378Z,84.42
2023-07-26T08:39:35.587Z,85.87
2023-07-26T08:42:39.203Z,85.26
2023-07-26T08:45:45.189Z,85.55
2023-07-26T08:48:48.948Z,85.19
2023-07-26T08:51:51.727Z,85.11
2023-07-26T08:54:54.796Z,85.43
2023-07-26T08:57:58.506Z,86.39
2023-07-26T09:01:01.492Z,85.80
2023-07-26T09:04:04.969Z,85.53
2023-07-26T09:07:07.925Z,84.06
2023-07-26T09:10:10.633Z,84.74
2023-07-26T09:13:15.931Z,84.99
2023-07-26T09:16:20.583Z,84.15
2023-07-26T09:19:33.990Z,84.42
2023-07-26T09:22:36.510Z,83.86
2023-07-26T09:25:41.445Z,83.03
2023-07-26T09:28:53.754Z,82.47
2023-07-26T09:31:56.844Z,80.71
2023-07-26T09:35:01.509Z,79.97
2023-07-26T09:38:15.480Z,79.29
2023-07-26T09:41:26.919Z,78.22
2023-07-26T09:44:29.600Z,76.30
2023-07-26T09:47:41.295Z,75.77
2023-07-26T09:53:56.074Z,73.37
2023-07-26T09:56:59.819Z,73.24
2023-07-26T10:00:05.755Z,73.65
2023-07-26T10:03:10.371Z,73.73
2023-07-26T10:06:14.565Z,72.05
2023-07-26T10:09:17.886Z,71.27
2023-07-26T10:12:24.501Z,71.71
2023-07-26T10:15:31.526Z,71.97
2023-07-26T10:18:35.161Z,72.65
2023-07-26T10:21:38.340Z,73.35
2023-07-26T10:24:42.393Z,73.16
2023-07-26T10:27:46.155Z,72.14
2023-07-26T10:30:52.688Z,72.61
2023-07-26T10:33:56.338Z,72.06
2023-07-26T10:36:59.055Z,71.87
2023-07-26T10:40:27.016Z,72.54
2023-07-26T10:43:29.386Z,72.07
2023-07-26T10:46:50.681Z,72.25
2023-07-26T10:49:56.087Z,70.57
2023-07-26T10:52:58.827Z,69.09
2023-07-26T10:56:20.746Z,68.16
2023-07-26T10:59:28.248Z,68.08
2023-07-26T11:02:43.529Z,68.18
2023-07-26T11:05:56.611Z,68.63
2023-07-26T11:08:59.161Z,69.44
2023-07-26T11:12:13.507Z,70.87
2023-07-26T11:16:13.478Z,70.96
2023-07-26T11:18:44.283Z,69.41
2023-07-26T11:21:46.909Z,69.54
2023-07-26T11:24:50.385Z,69.32
2023-07-26T11:27:52.928Z,68.33
2023-07-26T11:30:57.432Z,68.43
2023-07-26T11:34:00.530Z,68.03
2023-07-26T11:37:13.615Z,67.94
2023-07-26T11:40:16.137Z,66.44
2023-07-26T11:43:18.934Z,67.03
2023-07-26T11:46:28.740Z,65.90
2023-07-26T11:49:33.902Z,66.28
2023-07-26T11:52:36.845Z,66.38
2023-07-26T11:55:41.937Z,65.98
2023-07-26T11:58:45.377Z,66.54
2023-07-26T12:01:49.094Z,66.72
2023-07-26T12:05:17.841Z,65.41
2023-07-26T12:08:21.635Z,65.21
2023-07-26T12:11:24.858Z,65.58
2023-07-26T12:14:32.523Z,65.34
2023-07-26T12:17:35.445Z,64.16
2023-07-26T12:21:01.625Z,63.69
2023-07-26T12:24:07.505Z,63.80
2023-07-26T12:27:11.056Z,63.11
2023-07-26T12:30:14.344Z,63.65
2023-07-26T12:33:16.843Z,64.24
2023-07-26T12:36:19.939Z,64.82
2023-07-26T12:39:23.138Z,65.29
2023-07-26T12:42:26.274Z,64.67
2023-07-26T12:45:28.838Z,63.04
2023-07-26T12:48:34.624Z,60.09
2023-07-26T12:51:39.513Z,60.92
2023-07-26T12:54:42.507Z,60.97
2023-07-26T12:57:45.077Z,60.77
2023-07-26T13:00:49.145Z,61.51
2023-07-26T13:03:51.678Z,62.07
2023-07-26T13:06:54.526Z,62.99
2023-07-26T13:09:56.987Z,63.22
2023-07-26T13:12:59.797Z,63.21
2023-07-26T13:16:02.613Z,63.16
2023-07-26T13:19:05.966Z,62.89
2023-07-26T13:22:08.566Z,64.12
2023-07-26T13:25:11.568Z,64.05
2023-07-26T13:28:14.038Z,64.39
2023-07-26T13:31:17.987Z,64.61
2023-07-26T13:34:20.866Z,63.76
2023-07-26T13:37:23.580Z,64.52
2023-07-26T13:40:26.967Z,65.06
2023-07-26T13:43:30.901Z,64.18
2023-07-26T13:46:35.497Z,63.79
2023-07-26T13:49:38.679Z,63.96
2023-07-26T13:52:41.082Z,63.94
2023-07-26T13:55:43.796Z,64.05
2023-07-26T13:58:48.998Z,64.25
2023-07-26T14:01:52.291Z,63.68
2023-07-26T14:04:55.122Z,63.07
2023-07-26T14:07:57.617Z,61.89
2023-07-26T14:11:00.551Z,63.30
2023-07-26T14:14:06.147Z,63.19
2023-07-26T14:17:08.963Z,62.91
2023-07-26T14:20:11.863Z,61.78
2023-07-26T14:23:14.873Z,60.93
2023-07-26T14:26:17.419Z,60.29
2023-07-26T14:29:20.213Z,59.46
2023-07-26T14:32:22.714Z,59.04
2023-07-26T14:35:25.516Z,58.16
2023-07-26T14:38:28.081Z,57.98
2023-07-26T14:41:30.806Z,56.15
2023-07-26T14:44:33.215Z,57.44
2023-07-26T14:47:36.019Z,57.66
2023-07-26T14:50:38.606Z,57.20
2023-07-26T14:53:41.364Z,56.82
2023-07-26T14:56:50.509Z,56.15
2023-07-26T14:59:56.439Z,56.09
2023-07-26T15:02:59.562Z,56.30
2023-07-26T15:06:02.446Z,56.07
2023-07-26T15:09:04.926Z,56.28
2023-07-26T15:12:08.465Z,55.48
2023-07-26T15:15:12.956Z,55.47
2023-07-26T15:18:15.709Z,54.42
2023-07-26T15:21:18.329Z,54.86
2023-07-26T15:24:21.372Z,55.31
2023-07-26T15:27:23.891Z,55.26
2023-07-26T15:30:28.261Z,55.03
2023-07-26T15:33:30.810Z,54.64
2023-07-26T15:36:33.609Z,55.02
2023-07-26T15:39:36.110Z,55.21
2023-07-26T15:42:39.592Z,54.96
2023-07-26T15:48:47.960Z,55.32
2023-07-26T15:51:51.074Z,54.19
2023-07-26T15:54:53.748Z,54.26
2023-07-26T15:57:56.276Z,55.00
2023-07-26T16:00:59.208Z,54.56
2023-07-26T16:04:02.019Z,53.85
2023-07-26T16:07:04.863Z,53.66
2023-07-26T16:10:08.098Z,53.44
2023-07-26T16:13:11.571Z,53.58
2023-07-26T16:22:42.457Z,55.00
2023-07-26T16:25:45.827Z,55.03
2023-07-26T16:28:48.541Z,54.92
2023-07-26T16:31:51.304Z,54.81
2023-07-26T16:34:54.052Z,54.69
2023-07-26T16:37:56.467Z,54.50
2023-07-26T16:40:59.160Z,55.18
2023-07-26T16:44:02.119Z,54.96
2023-07-26T16:47:09.275Z,55.72
2023-07-26T16:50:14.958Z,55.43
2023-07-26T16:53:17.859Z,56.17
2023-07-26T16:56:20.446Z,57.12
2023-07-26T16:59:23.212Z,57.23
2023-07-26T17:02:26.310Z,57.61
2023-07-26T17:05:29.248Z,57.76
2023-07-26T17:08:31.742Z,57.93
2023-07-26T17:11:34.605Z,57.84
2023-07-26T17:14:37.094Z,58.41
2023-07-26T17:17:39.969Z,58.31
2023-07-26T17:20:44.735Z,58.92
2023-07-26T17:23:47.767Z,59.14
2023-07-26T17:26:50.267Z,58.95
2023-07-26T17:29:53.118Z,58.94
2023-07-26T17:32:55.597Z,59.40
2023-07-26T17:35:58.682Z,59.13
2023-07-26T17:39:05.194Z,59.16
2023-07-26T17:42:08.226Z,59.23
2023-07-26T17:45:12.205Z,59.78
2023-07-26T17:48:15.501Z,60.44
2023-07-26T17:51:19.015Z,60.49
2023-07-26T17:54:22.832Z,60.89
2023-07-26T17:57:26.118Z,61.43
2023-07-26T18:00:28.916Z,62.06
2023-07-26T18:03:31.993Z,62.79
2023-07-26T18:06:34.483Z,63.01
2023-07-26T18:09:37.380Z,63.66
2023-07-26T18:12:39.787Z,63.47
2023-07-26T18:15:42.638Z,64.29
2023-07-26T18:18:45.143Z,64.05
2023-07-26T18:21:47.975Z,63.90
2023-07-26T18:24:50.958Z,63.75
2023-07-26T18:27:57.055Z,63.25
2023-07-26T18:31:06.004Z,63.67
2023-07-26T18:34:09.106Z,63.72
2023-07-26T18:37:14.235Z,63.71
2023-07-26T18:40:16.954Z,64.05
2023-07-26T18:43:22.748Z,64.10
2023-07-26T18:46:25.662Z,64.31
2023-07-26T18:49:28.753Z,64.54
2023-07-26T18:52:31.484Z,65.37
2023-07-26T18:55:40.784Z,65.21
2023-07-26T18:58:44.657Z,65.44
2023-07-26T19:01:48.456Z,65.99
2023-07-26T19:04:51.535Z,65.82
2023-07-26T19:07:54.046Z,66.88
2023-07-26T19:10:57.736Z,66.21
2023-07-26T19:14:00.669Z,66.23
2023-07-26T19:17:03.874Z,66.71
2023-07-26T19:20:08.411Z,66.86
2023-07-26T19:23:11.103Z,66.78
2023-07-26T19:26:16.234Z,67.10
2023-07-26T19:29:19.190Z,66.87
2023-07-26T19:32:21.858Z,66.96
2023-07-26T19:35:26.479Z,66.99
2023-07-26T19:38:32.153Z,67.10
2023-07-26T19:41:35.083Z,67.57
2023-07-26T19:44:37.596Z,67.54
2023-07-26T19:47:40.601Z,67.56
2023-07-26T19:50:43.124Z,67.97
2023-07-26T19:53:46.612Z,68.30
2023-07-26T19:56:49.190Z,68.68
2023-07-26T19:59:51.977Z,69.43
2023-07-26T20:02:54.537Z,69.57
2023-07-26T20:05:58.041Z,70.09
2023-07-26T20:09:00.496Z,70.43
2023-07-26T20:12:04.448Z,70.69
2023-07-26T20:15:08.463Z,70.55
2023-07-26T20:18:11.670Z,70.88
2023-07-26T20:21:14.299Z,71.21
2023-07-26T20:24:17.057Z,71.67
2023-07-26T20:27:19.586Z,71.57
2023-07-26T20:30:22.437Z,72.13
2023-07-26T20:33:24.959Z,72.48
2023-07-26T20:36:27.832Z,71.82
2023-07-26T20:39:30.314Z,72.67
2023-07-26T20:42:33.065Z,72.42
2023-07-26T20:45:36.457Z,72.82
2023-07-26T20:48:39.156Z,73.21
2023-07-26T20:51:41.591Z,73.50
2023-07-26T20:54:45.112Z,75.11
2023-07-26T20:57:47.647Z,74.25
2023-07-26T21:00:51.958Z,75.95
2023-07-26T21:03:54.580Z,74.84
2023-07-26T21:06:57.321Z,74.83
2023-07-26T21:09:59.837Z,76.23
2023-07-26T21:13:02.728Z,75.48
2023-07-26T21:16:05.487Z,76.48
2023-07-26T21:19:08.222Z,76.18
2023-07-26T21:22:11.162Z,76.27
2023-07-26T21:25:13.922Z,76.45
2023-07-26T21:28:18.413Z,76.76
2023-07-26T21:31:22.055Z,76.24
2023-07-26T21:34:25.196Z,76.17
2023-07-26T21:37:27.904Z,75.99
2023-07-26T21:40:30.369Z,75.98
2023-07-26T21:43:33.113Z,76.42
2023-07-26T21:46:35.885Z,76.38
2023-07-26T21:49:39.240Z,76.60
2023-07-26T21:52:41.718Z,76.56
2023-07-26T21:55:44.451Z,77.21
2023-07-26T21:58:46.870Z,77.41
2023-07-26T22:01:49.621Z,77.35
2023-07-26T22:04:52.765Z,77.75
2023-07-26T22:07:58.487Z,78.40
2023-07-26T22:11:06.826Z,77.96
2023-07-26T22:14:09.254Z,77.91
2023-07-26T22:17:12.066Z,77.95
2023-07-26T22:20:14.624Z,77.94
2023-07-26T22:23:17.372Z,77.49
2023-07-26T22:26:21.749Z,77.50
2023-07-26T22:29:24.761Z,77.26
2023-07-26T22:32:27.339Z,77.14
2023-07-26T22:35:30.052Z,77.00
2023-07-26T22:38:32.488Z,76.74
2023-07-26T22:41:35.296Z,76.59
2023-07-26T22:44:38.190Z,76.44
2023-07-26T22:47:41.268Z,76.70
2023-07-26T22:50:43.657Z,76.97
2023-07-26T22:53:49.646Z,76.65
2023-07-26T22:56:52.156Z,76.47
2023-07-26T22:59:54.892Z,75.87
2023-07-26T23:02:57.371Z,75.86
2023-07-26T23:06:01.643Z,75.48
2023-07-26T23:09:04.240Z,75.63
2023-07-26T23:12:07.655Z,75.38
2023-07-26T23:15:10.524Z,75.30
2023-07-26T23:18:13.201Z,75.30
2023-07-26T23:21:15.661Z,75.46
2023-07-26T23:24:18.530Z,75.58
2023-07-26T23:27:21.103Z,75.46
2023-07-26T23:30:23.776Z,75.28
2023-07-26T23:33:26.202Z,75.36
2023-07-26T23:36:28.985Z,75.11
2023-07-26T23:39:32.821Z,74.96
2023-07-26T23:42:35.544Z,74.85
2023-07-26T23:45:38.554Z,74.52
2023-07-26T23:48:41.392Z,74.79
2023-07-26T23:51:43.880Z,74.67
2023-07-26T23:54:46.674Z,74.66
2023-07-26T23:57:49.079Z,74.46
